sensor_id;sensor_type;location;lat;lon;timestamp;pressure;altitude;pressure_sealevel;temperature;humidity
33155;BME280;19511;42.682;23.332;2022-10-22T00:00:35;96033.44;;;6.30;100.00
33155;BME280;19511;42.682;23.332;2022-10-22T00:03:00;96042.19;;;6.35;100.00
33155;BME280;19511;42.682;23.332;2022-10-22T00:05:26;95955.00;;;5.77;100.00
33155;BME280;19511;42.682;23.332;2022-10-22T00:07:51;96024.59;;;6.20;100.00
33155;BME280;19511;42.682;23.332;2022-10-22T00:10:17;96047.59;;;6.32;100.00
33155;BME280;19511;42.682;23.332;2022-10-22T00:12:43;96051.34;;;6.24;100.00
33155;BME280;19511;42.682;23.332;2022-10-22T00:15:09;95969.00;;;5.72;100.00
33155;BME280;19511;42.682;23.332;2022-10-22T00:17:35;96029.06;;;6.09;100.00
33155;BME280;19511;42.682;23.332;2022-10-22T00:20:05;96034.56;;;6.09;100.00
33155;BME280;19511;42.682;23.332;2022-10-22T00:22:30;96038.91;;;6.10;100.00
33155;BME280;19511;42.682;23.332;2022-10-22T00:24:56;96028.84;;;5.98;100.00
33155;BME280;19511;42.682;23.332;2022-10-22T00:27:21;95957.19;;;5.52;100.00
33155;BME280;19511;42.682;23.332;2022-10-22T00:29:47;96027.94;;;5.94;100.00
33155;BME280;19511;42.682;23.332;2022-10-22T00:32:13;95939.06;;;5.47;100.00
33155;BME280;19511;42.682;23.332;2022-10-22T00:34:39;96022.09;;;5.96;100.00
33155;BME280;19511;42.682;23.332;2022-10-22T00:37:05;96030.50;;;6.03;100.00
33155;BME280;19511;42.682;23.332;2022-10-22T00:39:30;96033.50;;;5.98;100.00
33155;BME280;19511;42.682;23.332;2022-10-22T00:41:56;96017.56;;;5.87;100.00
33155;BME280;19511;42.682;23.332;2022-10-22T00:44:57;96029.97;;;5.97;100.00
33155;BME280;19511;42.682;23.332;2022-10-22T00:47:24;96035.81;;;5.96;100.00
33155;BME280;19511;42.682;23.332;2022-10-22T00:49:52;96039.91;;;6.02;100.00
33155;BME280;19511;42.682;23.332;2022-10-22T00:52:18;96035.00;;;6.11;100.00
33155;BME280;19511;42.682;23.332;2022-10-22T00:54:43;96021.19;;;6.08;100.00
33155;BME280;19511;42.682;23.332;2022-10-22T00:57:09;96035.59;;;6.20;100.00
33155;BME280;19511;42.682;23.332;2022-10-22T00:59:35;96038.63;;;6.15;100.00
33155;BME280;19511;42.682;23.332;2022-10-22T01:02:02;96035.44;;;6.13;100.00
33155;BME280;19511;42.682;23.332;2022-10-22T01:04:27;96016.47;;;6.08;100.00
33155;BME280;19511;42.682;23.332;2022-10-22T01:06:52;95994.63;;;5.96;100.00
33155;BME280;19511;42.682;23.332;2022-10-22T01:15:33;95990.59;;;6.09;100.00
33155;BME280;19511;42.682;23.332;2022-10-22T01:18:05;95997.69;;;6.10;100.00
33155;BME280;19511;42.682;23.332;2022-10-22T01:23:22;95995.97;;;6.02;100.00
33155;BME280;19511;42.682;23.332;2022-10-22T01:26:05;95986.66;;;5.91;100.00
33155;BME280;19511;42.682;23.332;2022-10-22T01:28:55;95994.25;;;5.97;100.00
33155;BME280;19511;42.682;23.332;2022-10-22T01:31:24;95986.31;;;5.92;100.00
33155;BME280;19511;42.682;23.332;2022-10-22T01:33:53;95889.97;;;5.26;100.00
33155;BME280;19511;42.682;23.332;2022-10-22T01:36:19;95980.16;;;5.79;100.00
33155;BME280;19511;42.682;23.332;2022-10-22T01:38:45;95980.44;;;5.74;100.00
33155;BME280;19511;42.682;23.332;2022-10-22T01:41:12;95971.75;;;5.72;100.00
33155;BME280;19511;42.682;23.332;2022-10-22T01:43:38;95959.72;;;5.61;100.00
33155;BME280;19511;42.682;23.332;2022-10-22T01:46:05;95919.16;;;5.34;100.00
33155;BME280;19511;42.682;23.332;2022-10-22T01:51:24;95970.88;;;5.68;100.00
33155;BME280;19511;42.682;23.332;2022-10-22T01:59:52;95970.63;;;5.57;100.00
33155;BME280;19511;42.682;23.332;2022-10-22T02:04:51;95982.63;;;5.68;100.00
33155;BME280;19511;42.682;23.332;2022-10-22T02:07:21;95974.59;;;5.60;100.00
33155;BME280;19511;42.682;23.332;2022-10-22T02:09:51;95909.75;;;5.00;100.00
33155;BME280;19511;42.682;23.332;2022-10-22T02:12:18;95965.19;;;5.41;100.00
33155;BME280;19511;42.682;23.332;2022-10-22T02:14:47;95907.88;;;5.04;100.00
33155;BME280;19511;42.682;23.332;2022-10-22T02:17:17;95971.25;;;5.50;100.00
33155;BME280;19511;42.682;23.332;2022-10-22T02:19:55;95966.50;;;5.47;100.00
33155;BME280;19511;42.682;23.332;2022-10-22T02:22:20;95974.47;;;5.52;100.00
33155;BME280;19511;42.682;23.332;2022-10-22T02:24:47;95969.25;;;5.47;100.00
33155;BME280;19511;42.682;23.332;2022-10-22T02:32:17;95972.00;;;5.47;100.00
33155;BME280;19511;42.682;23.332;2022-10-22T02:34:45;95981.88;;;5.52;100.00
33155;BME280;19511;42.682;23.332;2022-10-22T02:37:13;95977.47;;;5.47;100.00
33155;BME280;19511;42.682;23.332;2022-10-22T02:39:40;95981.78;;;5.48;100.00
33155;BME280;19511;42.682;23.332;2022-10-22T02:42:05;95986.84;;;5.46;100.00
33155;BME280;19511;42.682;23.332;2022-10-22T02:44:31;95966.06;;;5.29;100.00
33155;BME280;19511;42.682;23.332;2022-10-22T02:46:56;95991.63;;;5.49;100.00
33155;BME280;19511;42.682;23.332;2022-10-22T02:49:22;95948.50;;;5.14;100.00
33155;BME280;19511;42.682;23.332;2022-10-22T02:51:48;95981.38;;;5.46;100.00
33155;BME280;19511;42.682;23.332;2022-10-22T02:54:13;95895.78;;;4.89;100.00
33155;BME280;19511;42.682;23.332;2022-10-22T02:56:38;95980.03;;;5.40;100.00
33155;BME280;19511;42.682;23.332;2022-10-22T02:59:04;95986.41;;;5.44;100.00
33155;BME280;19511;42.682;23.332;2022-10-22T03:01:29;95882.09;;;4.73;100.00
33155;BME280;19511;42.682;23.332;2022-10-22T03:03:55;95987.41;;;5.36;100.00
33155;BME280;19511;42.682;23.332;2022-10-22T03:06:20;95993.66;;;5.36;100.00
33155;BME280;19511;42.682;23.332;2022-10-22T03:08:46;96003.06;;;5.35;100.00
33155;BME280;19511;42.682;23.332;2022-10-22T03:11:11;95889.34;;;4.65;100.00
33155;BME280;19511;42.682;23.332;2022-10-22T03:13:37;95976.78;;;5.18;100.00
33155;BME280;19511;42.682;23.332;2022-10-22T03:16:02;95977.22;;;5.20;100.00
33155;BME280;19511;42.682;23.332;2022-10-22T03:18:28;95989.59;;;5.30;100.00
33155;BME280;19511;42.682;23.332;2022-10-22T03:21:27;95989.50;;;5.27;100.00
33155;BME280;19511;42.682;23.332;2022-10-22T03:23:55;95970.03;;;5.32;100.00
33155;BME280;19511;42.682;23.332;2022-10-22T03:26:21;95953.97;;;5.14;100.00
33155;BME280;19511;42.682;23.332;2022-10-22T03:28:46;95969.16;;;5.28;100.00
33155;BME280;19511;42.682;23.332;2022-10-22T03:31:13;95987.91;;;5.26;100.00
33155;BME280;19511;42.682;23.332;2022-10-22T03:33:39;95902.88;;;4.74;100.00
33155;BME280;19511;42.682;23.332;2022-10-22T03:36:05;95984.03;;;5.27;100.00
33155;BME280;19511;42.682;23.332;2022-10-22T03:38:34;95956.25;;;5.12;100.00
33155;BME280;19511;42.682;23.332;2022-10-22T03:41:01;95959.63;;;5.05;100.00
33155;BME280;19511;42.682;23.332;2022-10-22T03:43:27;95974.56;;;5.24;100.00
33155;BME280;19511;42.682;23.332;2022-10-22T03:45:52;95975.38;;;5.25;100.00
33155;BME280;19511;42.682;23.332;2022-10-22T03:48:18;95954.22;;;5.09;100.00
33155;BME280;19511;42.682;23.332;2022-10-22T03:50:43;95965.56;;;5.23;100.00
33155;BME280;19511;42.682;23.332;2022-10-22T03:53:09;95976.94;;;5.26;100.00
33155;BME280;19511;42.682;23.332;2022-10-22T03:55:35;95982.59;;;5.33;100.00
33155;BME280;19511;42.682;23.332;2022-10-22T03:58:02;95909.03;;;4.87;100.00
33155;BME280;19511;42.682;23.332;2022-10-22T04:00:28;95982.38;;;5.22;100.00
33155;BME280;19511;42.682;23.332;2022-10-22T04:02:53;95954.44;;;5.00;100.00
33155;BME280;19511;42.682;23.332;2022-10-22T04:05:19;95974.75;;;5.15;100.00
33155;BME280;19511;42.682;23.332;2022-10-22T04:07:44;95879.69;;;4.55;100.00
33155;BME280;19511;42.682;23.332;2022-10-22T04:10:10;95875.09;;;4.60;100.00
33155;BME280;19511;42.682;23.332;2022-10-22T04:12:35;95965.00;;;5.18;100.00
33155;BME280;19511;42.682;23.332;2022-10-22T04:15:01;95949.63;;;5.13;100.00
33155;BME280;19511;42.682;23.332;2022-10-22T04:17:32;95968.19;;;5.36;100.00
33155;BME280;19511;42.682;23.332;2022-10-22T04:19:57;95957.66;;;5.38;100.00
33155;BME280;19511;42.682;23.332;2022-10-22T04:22:23;95925.72;;;5.30;100.00
33155;BME280;19511;42.682;23.332;2022-10-22T04:24:48;95951.78;;;5.55;100.00
33155;BME280;19511;42.682;23.332;2022-10-22T04:27:13;95857.53;;;5.12;100.00
33155;BME280;19511;42.682;23.332;2022-10-22T04:29:39;95869.72;;;5.31;100.00
33155;BME280;19511;42.682;23.332;2022-10-22T04:32:04;95962.66;;;5.87;100.00
33155;BME280;19511;42.682;23.332;2022-10-22T04:34:30;95967.56;;;5.98;100.00
33155;BME280;19511;42.682;23.332;2022-10-22T04:36:55;95968.22;;;6.07;100.00
33155;BME280;19511;42.682;23.332;2022-10-22T04:39:21;95891.97;;;5.65;100.00
33155;BME280;19511;42.682;23.332;2022-10-22T04:41:46;95885.25;;;5.62;100.00
33155;BME280;19511;42.682;23.332;2022-10-22T04:44:12;95962.09;;;5.98;100.00
33155;BME280;19511;42.682;23.332;2022-10-22T04:46:37;95952.16;;;5.73;100.00
33155;BME280;19511;42.682;23.332;2022-10-22T04:49:03;95961.50;;;5.88;100.00
33155;BME280;19511;42.682;23.332;2022-10-22T04:51:29;95940.13;;;5.78;100.00
33155;BME280;19511;42.682;23.332;2022-10-22T04:53:54;95960.34;;;5.89;100.00
33155;BME280;19511;42.682;23.332;2022-10-22T04:56:27;95890.44;;;5.48;100.00
33155;BME280;19511;42.682;23.332;2022-10-22T04:59:00;95948.19;;;5.71;100.00
33155;BME280;19511;42.682;23.332;2022-10-22T05:01:31;95975.16;;;6.01;100.00
33155;BME280;19511;42.682;23.332;2022-10-22T05:03:58;95975.72;;;6.10;100.00
33155;BME280;19511;42.682;23.332;2022-10-22T05:06:25;95889.81;;;5.54;100.00
33155;BME280;19511;42.682;23.332;2022-10-22T05:08:53;95979.47;;;6.21;100.00
33155;BME280;19511;42.682;23.332;2022-10-22T05:11:21;95993.50;;;6.36;100.00
33155;BME280;19511;42.682;23.332;2022-10-22T05:13:47;95983.69;;;6.35;100.00
33155;BME280;19511;42.682;23.332;2022-10-22T05:16:15;95997.41;;;6.54;100.00
33155;BME280;19511;42.682;23.332;2022-10-22T05:18:42;95972.09;;;6.26;100.00
33155;BME280;19511;42.682;23.332;2022-10-22T05:21:13;95905.28;;;5.63;100.00
33155;BME280;19511;42.682;23.332;2022-10-22T05:23:39;95990.75;;;6.16;100.00
33155;BME280;19511;42.682;23.332;2022-10-22T05:26:06;95978.03;;;6.08;100.00
33155;BME280;19511;42.682;23.332;2022-10-22T05:28:36;95987.72;;;6.02;100.00
33155;BME280;19511;42.682;23.332;2022-10-22T05:31:02;95982.94;;;5.99;100.00
33155;BME280;19511;42.682;23.332;2022-10-22T05:33:29;96000.00;;;6.08;100.00
33155;BME280;19511;42.682;23.332;2022-10-22T05:35:55;96007.91;;;6.10;100.00
33155;BME280;19511;42.682;23.332;2022-10-22T05:38:21;96003.56;;;6.09;100.00
33155;BME280;19511;42.682;23.332;2022-10-22T05:40:47;95978.84;;;5.93;100.00
33155;BME280;19511;42.682;23.332;2022-10-22T05:43:13;96003.56;;;6.09;100.00
33155;BME280;19511;42.682;23.332;2022-10-22T05:45:40;95999.94;;;6.04;100.00
33155;BME280;19511;42.682;23.332;2022-10-22T05:48:06;96006.94;;;6.02;100.00
33155;BME280;19511;42.682;23.332;2022-10-22T05:50:36;96000.22;;;5.99;100.00
33155;BME280;19511;42.682;23.332;2022-10-22T05:53:03;95996.22;;;5.97;100.00
33155;BME280;19511;42.682;23.332;2022-10-22T05:55:28;95893.41;;;5.39;100.00
33155;BME280;19511;42.682;23.332;2022-10-22T05:57:54;95901.72;;;5.43;100.00
33155;BME280;19511;42.682;23.332;2022-10-22T06:00:19;95903.53;;;5.54;100.00
33155;BME280;19511;42.682;23.332;2022-10-22T06:02:48;96002.19;;;6.38;100.00
33155;BME280;19511;42.682;23.332;2022-10-22T06:05:14;95989.75;;;6.25;100.00
33155;BME280;19511;42.682;23.332;2022-10-22T06:07:40;96001.19;;;6.46;100.00
33155;BME280;19511;42.682;23.332;2022-10-22T06:10:09;96007.25;;;6.56;100.00
33155;BME280;19511;42.682;23.332;2022-10-22T06:12:38;95996.41;;;6.63;100.00
33155;BME280;19511;42.682;23.332;2022-10-22T06:15:04;95962.63;;;6.43;100.00
33155;BME280;19511;42.682;23.332;2022-10-22T06:17:30;95997.50;;;6.81;100.00
33155;BME280;19511;42.682;23.332;2022-10-22T06:19:55;95994.53;;;6.90;100.00
33155;BME280;19511;42.682;23.332;2022-10-22T06:22:20;96007.88;;;7.11;100.00
33155;BME280;19511;42.682;23.332;2022-10-22T06:24:46;95932.00;;;6.64;100.00
33155;BME280;19511;42.682;23.332;2022-10-22T06:27:11;96009.72;;;7.27;100.00
33155;BME280;19511;42.682;23.332;2022-10-22T06:29:37;95971.22;;;7.07;100.00
33155;BME280;19511;42.682;23.332;2022-10-22T06:32:02;96000.81;;;7.37;100.00
33155;BME280;19511;42.682;23.332;2022-10-22T06:34:28;95933.34;;;6.97;100.00
33155;BME280;19511;42.682;23.332;2022-10-22T06:36:53;95972.53;;;7.37;100.00
33155;BME280;19511;42.682;23.332;2022-10-22T06:39:18;95963.88;;;7.38;100.00
33155;BME280;19511;42.682;23.332;2022-10-22T06:41:44;96005.41;;;7.79;100.00
33155;BME280;19511;42.682;23.332;2022-10-22T06:44:14;95928.63;;;7.47;100.00
33155;BME280;19511;42.682;23.332;2022-10-22T06:46:40;96003.81;;;8.05;100.00
33155;BME280;19511;42.682;23.332;2022-10-22T06:49:11;95956.97;;;7.75;100.00
33155;BME280;19511;42.682;23.332;2022-10-22T06:51:37;96012.22;;;8.16;100.00
33155;BME280;19511;42.682;23.332;2022-10-22T06:54:02;95989.09;;;8.24;100.00
33155;BME280;19511;42.682;23.332;2022-10-22T06:56:28;96005.63;;;8.24;100.00
33155;BME280;19511;42.682;23.332;2022-10-22T06:58:55;95987.13;;;8.25;100.00
33155;BME280;19511;42.682;23.332;2022-10-22T07:01:24;96007.97;;;8.53;100.00
33155;BME280;19511;42.682;23.332;2022-10-22T07:03:50;96013.59;;;8.60;100.00
33155;BME280;19511;42.682;23.332;2022-10-22T07:06:17;95910.41;;;7.96;100.00
33155;BME280;19511;42.682;23.332;2022-10-22T07:08:42;95992.34;;;8.64;100.00
33155;BME280;19511;42.682;23.332;2022-10-22T07:11:20;95982.22;;;8.75;100.00
33155;BME280;19511;42.682;23.332;2022-10-22T07:13:47;95995.91;;;9.02;100.00
33155;BME280;19511;42.682;23.332;2022-10-22T07:16:13;95987.41;;;9.22;100.00
33155;BME280;19511;42.682;23.332;2022-10-22T07:18:39;95902.63;;;8.74;100.00
33155;BME280;19511;42.682;23.332;2022-10-22T07:21:06;95955.13;;;9.26;100.00
33155;BME280;19511;42.682;23.332;2022-10-22T07:23:32;95919.84;;;9.05;100.00
33155;BME280;19511;42.682;23.332;2022-10-22T07:25:58;95978.91;;;9.41;100.00
33155;BME280;19511;42.682;23.332;2022-10-22T07:28:24;95986.81;;;9.46;100.00
33155;BME280;19511;42.682;23.332;2022-10-22T07:30:50;95976.25;;;9.59;100.00
33155;BME280;19511;42.682;23.332;2022-10-22T07:33:15;95823.84;;;8.76;100.00
33155;BME280;19511;42.682;23.332;2022-10-22T07:35:41;95981.25;;;9.99;100.00
33155;BME280;19511;42.682;23.332;2022-10-22T07:38:07;95979.31;;;10.06;100.00
33155;BME280;19511;42.682;23.332;2022-10-22T07:40:34;95981.41;;;10.24;100.00
33155;BME280;19511;42.682;23.332;2022-10-22T07:43:00;95962.06;;;10.27;100.00
33155;BME280;19511;42.682;23.332;2022-10-22T07:45:25;95899.88;;;9.89;100.00
33155;BME280;19511;42.682;23.332;2022-10-22T07:47:51;95956.63;;;10.45;100.00
33155;BME280;19511;42.682;23.332;2022-10-22T07:50:16;95957.44;;;10.50;100.00
33155;BME280;19511;42.682;23.332;2022-10-22T07:52:42;95867.59;;;10.07;100.00
33155;BME280;19511;42.682;23.332;2022-10-22T07:55:07;95944.84;;;10.67;100.00
33155;BME280;19511;42.682;23.332;2022-10-22T07:57:33;95944.06;;;10.73;100.00
33155;BME280;19511;42.682;23.332;2022-10-22T07:59:59;95940.13;;;10.74;100.00
33155;BME280;19511;42.682;23.332;2022-10-22T08:02:25;95874.34;;;10.24;100.00
33155;BME280;19511;42.682;23.332;2022-10-22T08:04:50;95885.50;;;10.42;100.00
33155;BME280;19511;42.682;23.332;2022-10-22T08:07:17;95940.56;;;10.94;100.00
33155;BME280;19511;42.682;23.332;2022-10-22T08:09:42;95855.50;;;10.52;100.00
33155;BME280;19511;42.682;23.332;2022-10-22T08:12:08;95932.25;;;11.27;100.00
33155;BME280;19511;42.682;23.332;2022-10-22T08:14:33;95915.66;;;11.34;100.00
33155;BME280;19511;42.682;23.332;2022-10-22T08:16:58;95929.09;;;11.36;100.00
33155;BME280;19511;42.682;23.332;2022-10-22T08:19:24;95913.66;;;11.38;100.00
33155;BME280;19511;42.682;23.332;2022-10-22T08:21:49;95943.72;;;11.65;100.00
33155;BME280;19511;42.682;23.332;2022-10-22T08:24:15;95944.06;;;11.78;100.00
33155;BME280;19511;42.682;23.332;2022-10-22T08:26:41;95925.06;;;11.91;100.00
33155;BME280;19511;42.682;23.332;2022-10-22T08:29:07;95863.78;;;11.49;100.00
33155;BME280;19511;42.682;23.332;2022-10-22T08:31:36;95919.13;;;11.92;100.00
33155;BME280;19511;42.682;23.332;2022-10-22T08:34:05;95924.66;;;12.03;100.00
33155;BME280;19511;42.682;23.332;2022-10-22T08:36:41;95921.09;;;11.99;100.00
33155;BME280;19511;42.682;23.332;2022-10-22T08:39:11;95930.59;;;12.13;100.00
33155;BME280;19511;42.682;23.332;2022-10-22T08:50:22;95924.75;;;12.74;100.00
33155;BME280;19511;42.682;23.332;2022-10-22T08:52:54;95912.81;;;12.77;100.00
33155;BME280;19511;42.682;23.332;2022-10-22T08:55:25;95917.91;;;12.89;100.00
33155;BME280;19511;42.682;23.332;2022-10-22T08:58:03;95923.44;;;12.93;100.00
33155;BME280;19511;42.682;23.332;2022-10-22T09:01:00;95917.47;;;12.95;100.00
33155;BME280;19511;42.682;23.332;2022-10-22T09:03:44;95926.19;;;12.97;100.00
33155;BME280;19511;42.682;23.332;2022-10-22T09:08:45;95912.66;;;12.99;100.00
33155;BME280;19511;42.682;23.332;2022-10-22T09:13:37;95907.91;;;13.03;100.00
33155;BME280;19511;42.682;23.332;2022-10-22T09:24:08;95896.78;;;13.52;100.00
33155;BME280;19511;42.682;23.332;2022-10-22T09:26:38;95888.19;;;13.35;100.00
33155;BME280;19511;42.682;23.332;2022-10-22T09:29:05;95887.72;;;13.48;100.00
33155;BME280;19511;42.682;23.332;2022-10-22T09:31:33;95885.22;;;13.57;100.00
33155;BME280;19511;42.682;23.332;2022-10-22T09:33:59;95879.22;;;13.62;100.00
33155;BME280;19511;42.682;23.332;2022-10-22T09:36:30;95831.84;;;13.38;100.00
33155;BME280;19511;42.682;23.332;2022-10-22T09:38:56;95882.63;;;13.81;100.00
33155;BME280;19511;42.682;23.332;2022-10-22T09:41:32;95872.25;;;13.85;100.00
33155;BME280;19511;42.682;23.332;2022-10-22T09:44:01;95872.00;;;14.07;100.00
33155;BME280;19511;42.682;23.332;2022-10-22T09:46:37;95868.72;;;14.15;100.00
33155;BME280;19511;42.682;23.332;2022-10-22T09:49:12;95859.31;;;14.06;100.00
33155;BME280;19511;42.682;23.332;2022-10-22T09:51:51;95817.19;;;14.03;100.00
33155;BME280;19511;42.682;23.332;2022-10-22T09:54:19;95858.53;;;14.36;100.00
33155;BME280;19511;42.682;23.332;2022-10-22T09:57:02;95859.81;;;14.28;100.00
33155;BME280;19511;42.682;23.332;2022-10-22T09:59:36;95862.41;;;14.42;100.00
33155;BME280;19511;42.682;23.332;2022-10-22T10:02:09;95847.84;;;14.31;100.00
33155;BME280;19511;42.682;23.332;2022-10-22T10:04:40;95854.16;;;14.35;100.00
33155;BME280;19511;42.682;23.332;2022-10-22T10:07:15;95827.50;;;14.37;100.00
33155;BME280;19511;42.682;23.332;2022-10-22T10:09:42;95831.66;;;14.53;100.00
33155;BME280;19511;42.682;23.332;2022-10-22T10:23:30;95831.03;;;14.96;100.00
33155;BME280;19511;42.682;23.332;2022-10-22T10:34:47;95813.13;;;15.21;100.00
33155;BME280;19511;42.682;23.332;2022-10-22T10:37:24;95812.13;;;15.08;100.00
33155;BME280;19511;42.682;23.332;2022-10-22T10:42:40;95795.97;;;15.23;100.00
33155;BME280;19511;42.682;23.332;2022-10-22T10:45:14;95729.16;;;14.95;100.00
33155;BME280;19511;42.682;23.332;2022-10-22T10:53:09;95784.00;;;15.66;100.00
33155;BME280;19511;42.682;23.332;2022-10-22T10:58:41;95760.69;;;15.76;100.00
33155;BME280;19511;42.682;23.332;2022-10-22T11:07:04;95737.16;;;16.18;100.00
33155;BME280;19511;42.682;23.332;2022-10-22T11:09:38;95738.53;;;16.26;100.00
33155;BME280;19511;42.682;23.332;2022-10-22T11:12:16;95722.69;;;16.23;100.00
33155;BME280;19511;42.682;23.332;2022-10-22T11:15:26;95718.59;;;16.44;100.00
33155;BME280;19511;42.682;23.332;2022-10-22T11:18:07;95717.38;;;16.45;100.00
33155;BME280;19511;42.682;23.332;2022-10-22T11:23:50;95701.72;;;16.80;100.00
33155;BME280;19511;42.682;23.332;2022-10-22T11:28:52;95700.00;;;17.03;100.00
33155;BME280;19511;42.682;23.332;2022-10-22T11:31:22;95693.72;;;16.99;100.00
33155;BME280;19511;42.682;23.332;2022-10-22T11:36:22;95693.31;;;17.13;100.00
33155;BME280;19511;42.682;23.332;2022-10-22T11:38:50;95686.38;;;17.05;100.00
33155;BME280;19511;42.682;23.332;2022-10-22T11:41:18;95686.97;;;17.13;100.00
33155;BME280;19511;42.682;23.332;2022-10-22T11:44:22;95676.56;;;17.13;100.00
33155;BME280;19511;42.682;23.332;2022-10-22T11:47:02;95670.19;;;17.13;100.00
33155;BME280;19511;42.682;23.332;2022-10-22T11:50:18;95678.84;;;17.32;100.00
33155;BME280;19511;42.682;23.332;2022-10-22T11:53:04;95680.63;;;17.25;100.00
33155;BME280;19511;42.682;23.332;2022-10-22T11:58:00;95673.31;;;17.44;100.00
33155;BME280;19511;42.682;23.332;2022-10-22T12:00:45;95679.69;;;17.45;100.00
33155;BME280;19511;42.682;23.332;2022-10-22T12:11:39;95669.34;;;17.71;100.00
33155;BME280;19511;42.682;23.332;2022-10-22T12:18:01;95635.91;;;17.81;100.00
33155;BME280;19511;42.682;23.332;2022-10-22T12:20:29;95638.16;;;17.99;100.00
33155;BME280;19511;42.682;23.332;2022-10-22T12:22:57;95629.09;;;17.94;100.00
33155;BME280;19511;42.682;23.332;2022-10-22T12:25:29;95640.19;;;18.11;100.00
33155;BME280;19511;42.682;23.332;2022-10-22T12:27:57;95615.00;;;17.98;100.00
33155;BME280;19511;42.682;23.332;2022-10-22T12:30:24;95632.34;;;18.06;100.00
33155;BME280;19511;42.682;23.332;2022-10-22T12:32:55;95642.31;;;17.94;100.00
33155;BME280;19511;42.682;23.332;2022-10-22T12:35:23;95633.69;;;18.01;100.00
33155;BME280;19511;42.682;23.332;2022-10-22T12:37:51;95554.19;;;17.73;100.00
33155;BME280;19511;42.682;23.332;2022-10-22T12:40:25;95625.28;;;18.27;100.00
33155;BME280;19511;42.682;23.332;2022-10-22T12:42:54;95632.22;;;18.35;100.00
33155;BME280;19511;42.682;23.332;2022-10-22T12:45:22;95541.88;;;17.83;100.00
33155;BME280;19511;42.682;23.332;2022-10-22T12:47:50;95618.69;;;18.34;100.00
33155;BME280;19511;42.682;23.332;2022-10-22T12:50:18;95604.91;;;18.26;100.00
33155;BME280;19511;42.682;23.332;2022-10-22T12:52:45;95602.88;;;18.40;99.68
33155;BME280;19511;42.682;23.332;2022-10-22T12:55:18;95610.28;;;18.34;100.00
33155;BME280;19511;42.682;23.332;2022-10-22T12:57:47;95605.88;;;18.46;100.00
33155;BME280;19511;42.682;23.332;2022-10-22T13:00:25;95594.09;;;18.51;100.00
33155;BME280;19511;42.682;23.332;2022-10-22T13:02:51;95594.97;;;18.60;100.00
33155;BME280;19511;42.682;23.332;2022-10-22T13:05:30;95590.91;;;18.74;98.58
33155;BME280;19511;42.682;23.332;2022-10-22T13:08:04;95539.34;;;18.37;98.96
33155;BME280;19511;42.682;23.332;2022-10-22T13:10:36;95597.91;;;18.79;99.44
33155;BME280;19511;42.682;23.332;2022-10-22T13:13:02;95519.41;;;18.00;99.64
33155;BME280;19511;42.682;23.332;2022-10-22T13:18:15;95588.56;;;18.73;98.16
33155;BME280;19511;42.682;23.332;2022-10-22T13:20:56;95578.56;;;18.72;96.57
33155;BME280;19511;42.682;23.332;2022-10-22T13:23:24;95580.47;;;18.75;97.48
33155;BME280;19511;42.682;23.332;2022-10-22T13:26:13;95581.03;;;18.70;100.00
33155;BME280;19511;42.682;23.332;2022-10-22T13:28:39;95513.03;;;18.34;99.48
33155;BME280;19511;42.682;23.332;2022-10-22T13:31:13;95581.78;;;18.83;100.00
33155;BME280;19511;42.682;23.332;2022-10-22T13:33:41;95586.47;;;18.86;100.00
33155;BME280;19511;42.682;23.332;2022-10-22T13:36:18;95581.53;;;18.90;100.00
33155;BME280;19511;42.682;23.332;2022-10-22T13:38:43;95583.97;;;19.01;96.21
33155;BME280;19511;42.682;23.332;2022-10-22T13:41:24;95588.06;;;19.09;96.35
33155;BME280;19511;42.682;23.332;2022-10-22T13:43:50;95572.41;;;18.99;98.77
33155;BME280;19511;42.682;23.332;2022-10-22T13:46:17;95503.09;;;18.55;96.16
33155;BME280;19511;42.682;23.332;2022-10-22T13:48:44;95567.63;;;19.00;97.95
33155;BME280;19511;42.682;23.332;2022-10-22T13:51:14;95578.56;;;19.07;96.53
33155;BME280;19511;42.682;23.332;2022-10-22T13:53:41;95575.16;;;19.12;95.41
33155;BME280;19511;42.682;23.332;2022-10-22T13:56:11;95517.38;;;18.70;97.62
33155;BME280;19511;42.682;23.332;2022-10-22T13:58:37;95512.28;;;18.56;97.07
33155;BME280;19511;42.682;23.332;2022-10-22T14:01:03;95582.66;;;18.93;98.42
33155;BME280;19511;42.682;23.332;2022-10-22T14:03:33;95561.06;;;18.81;99.07
33155;BME280;19511;42.682;23.332;2022-10-22T14:06:00;95577.59;;;18.88;99.97
33155;BME280;19511;42.682;23.332;2022-10-22T14:08:26;95573.84;;;18.82;100.00
33155;BME280;19511;42.682;23.332;2022-10-22T14:10:53;95516.13;;;18.49;100.00
33155;BME280;19511;42.682;23.332;2022-10-22T14:13:19;95570.44;;;18.87;100.00
33155;BME280;19511;42.682;23.332;2022-10-22T14:15:47;95565.22;;;18.76;100.00
33155;BME280;19511;42.682;23.332;2022-10-22T14:18:22;95566.44;;;18.75;100.00
33155;BME280;19511;42.682;23.332;2022-10-22T14:20:55;95565.66;;;18.74;100.00
33155;BME280;19511;42.682;23.332;2022-10-22T14:23:24;95558.97;;;18.72;100.00
33155;BME280;19511;42.682;23.332;2022-10-22T14:25:51;95564.22;;;18.70;100.00
33155;BME280;19511;42.682;23.332;2022-10-22T14:28:17;95557.50;;;18.67;100.00
33155;BME280;19511;42.682;23.332;2022-10-22T14:30:43;95550.25;;;18.57;100.00
33155;BME280;19511;42.682;23.332;2022-10-22T14:35:47;95558.13;;;18.49;100.00
33155;BME280;19511;42.682;23.332;2022-10-22T14:38:16;95564.31;;;18.44;100.00
33155;BME280;19511;42.682;23.332;2022-10-22T14:40:42;95558.50;;;18.38;100.00
33155;BME280;19511;42.682;23.332;2022-10-22T14:43:17;95543.09;;;18.21;100.00
33155;BME280;19511;42.682;23.332;2022-10-22T14:45:43;95547.13;;;18.20;100.00